Time;durP1;ratioP1;P1;durP2;ratioP2;P2;SDS_P1;SDS_P2;PMS_P1;PMS_P2;Temp;Humidity;BMP_temperature;BMP_pressure;BME280_temperature;BME280_humidity;BME280_pressure;Samples;Min_cycle;Max_cycle;Signal;HPM_P1;HPM_P2
2021/07/17 00:00:36;;;;;;;11.38;3.92;;;44.10;21.00;;;;;;5062057;28;20554;-63
2021/07/17 00:03:04;;;;;;;9.20;3.20;;;44.10;21.20;;;;;;5065834;28;20081;-63
2021/07/17 00:05:31;;;;;;;15.57;3.65;;;44.00;21.70;;;;;;5063164;28;20069;-63
2021/07/17 00:07:58;;;;;;;6.50;3.45;;;44.00;22.10;;;;;;5063085;28;20202;-62
2021/07/17 00:10:42;;;;;;;9.40;3.70;;;43.90;21.80;;;;;;5065169;28;20176;-62
2021/07/17 00:13:09;;;;;;;10.93;3.28;;;43.80;22.00;;;;;;5067749;28;20080;-62
2021/07/17 00:15:36;;;;;;;13.20;3.53;;;43.80;21.70;;;;;;5067168;28;20097;-62
2021/07/17 00:18:04;;;;;;;13.93;3.22;;;43.90;21.70;;;;;;5058156;28;20081;-62
2021/07/17 00:20:31;;;;;;;8.32;2.90;;;43.90;21.40;;;;;;5062736;28;20074;-63
2021/07/17 00:22:57;;;;;;;15.15;3.53;;;43.80;21.60;;;;;;5064448;28;20110;-64
2021/07/17 00:25:24;;;;;;;12.45;3.58;;;43.80;22.30;;;;;;5062692;28;20070;-65
2021/07/17 00:27:51;;;;;;;13.80;3.47;;;43.70;21.70;;;;;;5063544;28;20517;-63
2021/07/17 00:30:19;;;;;;;13.40;3.33;;;43.70;22.40;;;;;;5067241;28;20105;-63
2021/07/17 00:32:47;;;;;;;11.27;3.17;;;43.60;22.50;;;;;;5065925;28;20175;-63
2021/07/17 00:35:14;;;;;;;18.27;3.05;;;43.50;22.90;;;;;;5058093;28;20157;-63
2021/07/17 00:37:40;;;;;;;17.33;3.58;;;43.30;22.70;;;;;;5063259;28;20081;-65
2021/07/17 00:40:09;;;;;;;16.50;3.05;;;43.30;22.50;;;;;;5063433;28;20076;-66
2021/07/17 00:42:45;;;;;;;12.50;3.15;;;43.40;22.60;;;;;;5047031;28;20078;-66
2021/07/17 00:45:12;;;;;;;11.27;2.70;;;43.60;22.70;;;;;;5065175;28;20078;-66
2021/07/17 00:47:41;;;;;;;11.18;2.95;;;43.60;23.20;;;;;;5045317;28;20103;-67
2021/07/17 00:50:10;;;;;;;12.05;2.80;;;43.70;23.40;;;;;;5061939;28;20200;-66
2021/07/17 00:52:36;;;;;;;12.85;3.10;;;43.50;25.00;;;;;;5061341;28;20092;-65
2021/07/17 00:55:05;;;;;;;16.52;3.13;;;43.40;26.60;;;;;;5042997;28;20200;-66
2021/07/17 00:57:36;;;;;;;17.33;3.30;;;43.20;26.90;;;;;;5069427;28;20438;-66
2021/07/17 01:00:09;;;;;;;19.63;3.58;;;43.20;27.50;;;;;;5062107;28;20073;-66
2021/07/17 01:02:38;;;;;;;17.45;3.30;;;43.00;27.70;;;;;;5063373;28;20120;-65
2021/07/17 01:05:08;;;;;;;16.27;2.95;;;42.70;28.00;;;;;;5062470;28;20069;-66
2021/07/17 01:07:35;;;;;;;15.20;3.20;;;42.60;28.10;;;;;;5066012;28;20104;-66
2021/07/17 01:10:04;;;;;;;9.00;2.85;;;42.60;27.90;;;;;;5062832;28;20066;-66
2021/07/17 01:12:30;;;;;;;16.98;2.92;;;42.40;28.20;;;;;;5068133;28;20119;-67
2021/07/17 01:14:57;;;;;;;20.90;3.38;;;42.30;28.20;;;;;;5069206;28;20080;-65
2021/07/17 01:17:24;;;;;;;22.13;3.33;;;42.30;28.10;;;;;;5069072;28;20454;-65
2021/07/17 01:19:50;;;;;;;12.07;2.97;;;42.20;27.90;;;;;;5052786;28;20069;-65
2021/07/17 01:22:18;;;;;;;11.98;2.88;;;42.10;28.00;;;;;;5067276;28;20109;-66
2021/07/17 01:24:46;;;;;;;11.27;3.13;;;41.90;28.10;;;;;;5069185;28;20569;-64
2021/07/17 01:27:19;;;;;;;22.00;3.20;;;41.90;27.80;;;;;;5064667;28;20074;-67
2021/07/17 01:29:46;;;;;;;13.80;3.17;;;41.90;27.60;;;;;;5072898;28;20082;-65
2021/07/17 01:32:17;;;;;;;15.85;3.00;;;41.80;27.40;;;;;;5068927;28;20097;-66
2021/07/17 01:34:43;;;;;;;12.05;3.03;;;41.80;27.80;;;;;;5067501;28;20096;-66
2021/07/17 01:37:10;;;;;;;15.95;3.03;;;41.60;27.40;;;;;;5045051;28;20156;-65
2021/07/17 01:39:36;;;;;;;44.40;3.72;;;41.50;27.50;;;;;;5065726;28;20069;-65
2021/07/17 01:42:03;;;;;;;36.42;3.45;;;41.60;27.80;;;;;;5064641;28;20628;-66
2021/07/17 01:44:29;;;;;;;29.15;4.03;;;41.40;28.40;;;;;;5067217;28;20070;-66
2021/07/17 01:46:55;;;;;;;20.98;3.80;;;41.20;28.80;;;;;;5069348;28;20069;-66
2021/07/17 01:49:22;;;;;;;35.33;5.15;;;40.90;29.10;;;;;;5047893;28;20109;-67
2021/07/17 01:51:49;;;;;;;31.67;5.10;;;40.90;29.00;;;;;;5062450;28;20551;-66
2021/07/17 01:54:15;;;;;;;45.75;6.18;;;40.80;29.20;;;;;;5069427;28;20097;-67
2021/07/17 01:56:41;;;;;;;28.98;5.15;;;40.90;28.80;;;;;;5069661;28;20084;-66
2021/07/17 01:59:08;;;;;;;13.70;3.92;;;40.90;28.50;;;;;;5048387;28;20122;-67
2021/07/17 02:01:34;;;;;;;19.42;3.20;;;41.00;28.40;;;;;;5066135;28;20095;-67
2021/07/17 02:04:01;;;;;;;21.67;3.92;;;40.80;28.50;;;;;;5068722;28;20160;-66
2021/07/17 02:06:29;;;;;;;20.52;3.80;;;40.50;28.70;;;;;;5052807;28;20473;-66
2021/07/17 02:08:57;;;;;;;27.63;3.28;;;40.20;29.10;;;;;;5064479;28;20074;-66
2021/07/17 02:11:24;;;;;;;18.27;3.60;;;40.00;29.40;;;;;;5068162;28;20101;-65
2021/07/17 02:13:54;;;;;;;29.70;4.68;;;39.90;29.70;;;;;;5067642;28;20066;-65
2021/07/17 02:16:22;;;;;;;21.15;3.83;;;39.80;29.50;;;;;;5066090;28;20076;-66
2021/07/17 02:18:49;;;;;;;31.05;4.60;;;39.50;29.60;;;;;;5064802;28;20070;-65
2021/07/17 02:21:17;;;;;;;25.20;3.33;;;39.50;29.60;;;;;;5063920;28;20398;-65
2021/07/17 02:23:44;;;;;;;17.98;3.42;;;39.40;29.60;;;;;;5064775;28;20074;-65
2021/07/17 02:26:11;;;;;;;30.65;4.28;;;39.40;29.60;;;;;;5065799;28;20080;-65
2021/07/17 02:28:39;;;;;;;34.15;4.28;;;39.20;29.60;;;;;;5073966;28;20105;-66
2021/07/17 02:31:06;;;;;;;32.78;5.10;;;39.00;29.80;;;;;;5076469;28;20099;-65
2021/07/17 02:33:33;;;;;;;30.90;6.05;;;38.90;30.10;;;;;;5050744;28;20511;-66
2021/07/17 02:36:00;;;;;;;39.05;7.00;;;38.80;30.50;;;;;;5069134;28;20073;-66
2021/07/17 02:38:27;;;;;;;25.58;6.65;;;38.70;30.80;;;;;;5061388;28;20073;-65
2021/07/17 02:40:53;;;;;;;29.73;5.60;;;;;;;;;;5069893;28;20058;-66
2021/07/17 02:43:20;;;;;;;32.95;4.75;;;;;;;;;;5064471;28;20056;-66
2021/07/17 02:45:46;;;;;;;18.75;5.07;;;;;;;;;;5063260;28;20051;-65
2021/07/17 02:48:13;;;;;;;20.92;5.30;;;;;;;;;;5067138;28;20031;-64
2021/07/17 02:50:39;;;;;;;25.95;6.75;;;38.20;31.70;;;;;;5066120;28;20044;-68
2021/07/17 02:53:06;;;;;;;29.70;6.22;;;;;;;;;;5061540;28;20102;-66
2021/07/17 02:55:33;;;;;;;18.60;4.55;;;38.20;34.70;;;;;;5068961;28;20017;-65
2021/07/17 02:57:59;;;;;;;29.42;3.95;;;38.10;33.10;;;;;;5062096;28;20024;-64
2021/07/17 03:00:28;;;;;;;19.73;3.55;;;37.90;32.70;;;;;;5049703;28;20041;-66
2021/07/17 03:02:54;;;;;;;30.73;4.57;;;38.00;33.40;;;;;;5064864;28;20092;-66
2021/07/17 03:05:21;;;;;;;18.27;3.53;;;37.90;33.60;;;;;;5050328;28;20088;-66
2021/07/17 03:07:47;;;;;;;18.10;3.40;;;;;;;;;;5064063;28;20061;-66
2021/07/17 03:10:14;;;;;;;15.60;2.95;;;37.60;47.50;;;;;;5065214;28;20454;-66
2021/07/17 03:12:40;;;;;;;28.52;7.47;;;37.70;34.10;;;;;;5066595;28;20130;-67
2021/07/17 03:15:07;;;;;;;15.02;3.78;;;37.70;34.20;;;;;;5062708;28;20084;-65
2021/07/17 03:17:34;;;;;;;22.40;2.88;;;37.60;34.00;;;;;;5065645;28;20081;-65
2021/07/17 03:20:00;;;;;;;26.60;4.32;;;37.50;34.00;;;;;;5066828;28;20081;-65
2021/07/17 03:22:27;;;;;;;26.02;4.50;;;37.40;34.00;;;;;;5064264;28;20062;-66
2021/07/17 03:24:54;;;;;;;25.00;4.88;;;37.20;52.60;;;;;;5067651;28;20066;-66
2021/07/17 03:27:20;;;;;;;28.35;4.47;;;37.20;33.70;;;;;;5064388;28;20098;-66
2021/07/17 03:29:48;;;;;;;27.08;4.50;;;37.20;34.30;;;;;;5052853;28;20417;-66
2021/07/17 03:32:20;;;;;;;21.10;3.78;;;37.10;34.50;;;;;;5065748;28;20115;-65
2021/07/17 03:34:46;;;;;;;16.90;3.45;;;37.10;34.90;;;;;;5068833;28;20112;-66
2021/07/17 03:37:13;;;;;;;46.97;4.50;;;36.90;36.70;;;;;;5062589;28;20041;-66
2021/07/17 03:39:39;;;;;;;12.75;3.17;;;37.00;35.00;;;;;;5062608;28;20108;-65
2021/07/17 03:42:06;;;;;;;19.60;2.92;;;36.90;35.00;;;;;;5066238;28;20098;-65
2021/07/17 03:44:32;;;;;;;15.52;2.97;;;36.90;34.40;;;;;;5063967;28;20036;-65
2021/07/17 03:46:59;;;;;;;20.10;4.10;;;36.80;35.40;;;;;;5064300;28;20097;-66
2021/07/17 03:49:25;;;;;;;15.43;3.30;;;36.80;35.10;;;;;;5066082;28;20152;-66
2021/07/17 03:51:52;;;;;;;13.55;2.88;;;36.70;35.20;;;;;;5064694;28;20142;-65
2021/07/17 03:54:18;;;;;;;16.13;3.30;;;36.50;50.50;;;;;;5061508;28;20070;-64
2021/07/17 03:56:45;;;;;;;21.02;4.07;;;36.60;35.80;;;;;;5065706;28;20084;-65
2021/07/17 03:59:11;;;;;;;18.23;4.47;;;36.60;52.40;;;;;;5067258;28;20020;-66
2021/07/17 04:01:38;;;;;;;30.08;4.97;;;36.50;36.20;;;;;;5058960;28;20074;-65
2021/07/17 04:04:05;;;;;;;24.95;4.30;;;36.50;36.30;;;;;;5064611;28;20078;-65
2021/07/17 04:06:31;;;;;;;16.98;4.60;;;36.40;36.30;;;;;;5063566;28;20085;-66
2021/07/17 04:08:58;;;;;;;26.67;5.93;;;36.40;36.50;;;;;;5063519;28;20073;-66
2021/07/17 04:11:24;;;;;;;27.48;4.68;;;36.40;36.40;;;;;;5066198;28;20104;-66
2021/07/17 04:13:51;;;;;;;18.83;4.32;;;36.30;36.70;;;;;;5067506;28;20557;-66
2021/07/17 04:16:17;;;;;;;23.23;4.45;;;36.20;36.90;;;;;;5063194;28;20073;-65
2021/07/17 04:18:43;;;;;;;20.85;4.13;;;36.10;36.80;;;;;;5062080;28;20082;-65
2021/07/17 04:21:12;;;;;;;19.02;4.20;;;36.10;36.90;;;;;;5067815;28;20127;-65
2021/07/17 04:23:41;;;;;;;17.17;3.67;;;36.10;37.00;;;;;;5063600;28;20069;-68
2021/07/17 04:26:09;;;;;;;20.13;3.83;;;36.00;37.10;;;;;;5064898;28;20084;-66
2021/07/17 04:28:35;;;;;;;19.02;3.92;;;36.00;37.20;;;;;;5061454;28;20426;-64
2021/07/17 04:31:03;;;;;;;14.98;3.25;;;36.00;37.30;;;;;;5063545;28;20093;-65
2021/07/17 04:33:30;;;;;;;16.05;3.40;;;35.80;37.40;;;;;;5069133;28;20491;-64
2021/07/17 04:35:56;;;;;;;16.00;3.22;;;35.80;80.10;;;;;;5060346;28;20607;-66
2021/07/17 04:38:23;;;;;;;15.65;3.38;;;35.70;45.70;;;;;;5063579;28;20036;-66
2021/07/17 04:40:49;;;;;;;13.52;3.15;;;;;;;;;;5059755;28;20547;-67
2021/07/17 04:43:16;;;;;;;18.48;3.30;;;35.70;52.00;;;;;;5046227;28;20033;-66
2021/07/17 04:45:42;;;;;;;18.95;3.95;;;35.70;37.50;;;;;;5061542;28;20080;-65
2021/07/17 04:48:09;;;;;;;9.82;3.78;;;;;;;;;;5068394;28;20083;-66
2021/07/17 04:50:37;;;;;;;21.35;3.88;;;35.70;48.60;;;;;;5064356;28;20109;-66
2021/07/17 04:53:05;;;;;;;19.77;4.60;;;35.80;65.80;;;;;;5064664;28;20036;-66
2021/07/17 04:55:31;;;;;;;18.00;3.65;;;35.70;37.90;;;;;;5061899;28;20073;-65
2021/07/17 04:57:58;;;;;;;13.85;3.72;;;35.60;38.10;;;;;;5061567;28;20119;-65
2021/07/17 05:00:25;;;;;;;20.92;4.47;;;35.50;39.20;;;;;;5045789;28;20084;-65
2021/07/17 05:02:56;;;;;;;12.75;3.00;;;35.50;38.80;;;;;;5064583;28;20438;-65
2021/07/17 05:05:24;;;;;;;19.15;3.00;;;35.40;39.20;;;;;;5064509;28;20136;-66
2021/07/17 05:07:52;;;;;;;17.65;3.15;;;35.20;54.00;;;;;;5063381;28;20523;-67
2021/07/17 05:10:24;;;;;;;16.95;3.30;;;35.20;50.60;;;;;;5066153;28;20073;-68
2021/07/17 05:12:51;;;;;;;13.45;3.30;;;;;;;;;;5057993;28;20037;-66
2021/07/17 05:15:19;;;;;;;18.55;4.60;;;35.30;78.80;;;;;;5069931;28;20381;-66
2021/07/17 05:17:45;;;;;;;18.30;4.70;;;35.10;58.00;;;;;;5062120;28;20032;-66
2021/07/17 05:20:13;;;;;;;15.45;4.72;;;35.20;41.10;;;;;;5064430;28;20073;-67
2021/07/17 05:22:39;;;;;;;16.23;4.65;;;35.10;41.40;;;;;;5066782;28;20073;-66
2021/07/17 05:25:07;;;;;;;17.95;4.45;;;34.90;51.10;;;;;;5065543;28;20037;-66
2021/07/17 05:27:34;;;;;;;16.73;4.15;;;;;;;;;;5068006;28;20412;-65
2021/07/17 05:30:02;;;;;;;14.52;4.35;;;34.80;82.20;;;;;;5064050;28;20416;-66
2021/07/17 05:32:28;;;;;;;17.35;4.20;;;35.10;53.80;;;;;;5071162;28;20040;-65
2021/07/17 05:34:55;;;;;;;22.23;4.57;;;;;;;;;;5058880;28;20107;-65
2021/07/17 05:37:24;;;;;;;38.95;6.50;;;34.90;42.90;;;;;;5062713;28;20075;-65
2021/07/17 05:39:51;;;;;;;10.90;4.88;;;;;;;;;;5064117;28;20472;-67
2021/07/17 05:42:17;;;;;;;20.13;4.18;;;34.80;49.00;;;;;;5063955;28;20041;-66
2021/07/17 05:44:44;;;;;;;15.10;4.07;;;;;;;;;;5062567;28;20088;-64
2021/07/17 05:47:10;;;;;;;13.10;3.70;;;34.60;87.30;;;;;;5063062;28;20112;-65
2021/07/17 05:49:37;;;;;;;19.45;4.97;;;34.80;47.90;;;;;;5060502;28;20579;-65
2021/07/17 05:52:03;;;;;;;9.57;3.40;;;34.60;53.10;;;;;;5047688;28;20511;-65
2021/07/17 05:54:30;;;;;;;14.88;3.97;;;34.80;50.10;;;;;;5065714;28;20111;-65
2021/07/17 05:56:57;;;;;;;14.15;3.63;;;34.50;48.00;;;;;;5064393;28;20029;-64
2021/07/17 05:59:23;;;;;;;21.10;3.75;;;34.50;57.10;;;;;;5069063;28;20078;-65
2021/07/17 06:01:50;;;;;;;18.65;3.65;;;34.60;43.20;;;;;;5066554;28;20077;-66
2021/07/17 06:04:16;;;;;;;21.02;4.00;;;34.50;61.60;;;;;;5070695;28;20550;-67
2021/07/17 06:06:42;;;;;;;13.48;3.92;;;34.60;42.50;;;;;;5068738;28;20496;-66
2021/07/17 06:09:09;;;;;;;13.02;3.20;;;34.50;42.60;;;;;;5052614;28;20475;-66
2021/07/17 06:11:36;;;;;;;11.27;3.15;;;34.60;63.70;;;;;;5064444;28;20075;-63
2021/07/17 06:14:02;;;;;;;12.88;3.08;;;34.60;41.30;;;;;;5064735;28;20081;-64
2021/07/17 06:16:29;;;;;;;15.07;2.95;;;34.70;41.40;;;;;;5049454;28;20185;-66
2021/07/17 06:18:55;;;;;;;8.13;2.45;;;34.70;41.80;;;;;;5068169;28;20694;-65
2021/07/17 06:21:21;;;;;;;18.92;3.78;;;34.60;43.20;;;;;;5063725;28;20047;-64
2021/07/17 06:23:48;;;;;;;12.85;2.78;;;34.40;54.70;;;;;;5050538;28;20038;-63
2021/07/17 06:26:14;;;;;;;13.18;2.35;;;34.60;41.00;;;;;;5073943;28;20486;-65
2021/07/17 06:28:41;;;;;;;9.85;2.90;;;34.60;40.80;;;;;;5069485;28;20160;-64
2021/07/17 06:31:07;;;;;;;11.65;2.40;;;34.60;40.50;;;;;;5067177;28;20096;-66
2021/07/17 06:33:34;;;;;;;13.93;3.10;;;34.50;39.90;;;;;;5070949;28;20523;-65
2021/07/17 06:36:02;;;;;;;11.73;2.67;;;34.50;39.30;;;;;;5068572;28;20028;-64
2021/07/17 06:38:28;;;;;;;11.95;3.00;;;34.40;42.40;;;;;;5062948;28;20059;-64
2021/07/17 06:40:55;;;;;;;31.73;4.22;;;34.50;39.70;;;;;;5065915;28;20049;-66
2021/07/17 06:43:21;;;;;;;9.35;2.63;;;34.40;39.60;;;;;;5066414;28;20061;-65
2021/07/17 06:45:48;;;;;;;12.90;3.00;;;34.50;39.70;;;;;;5075511;28;20536;-64
2021/07/17 06:48:14;;;;;;;11.35;3.13;;;34.40;39.80;;;;;;5071727;28;20438;-64
2021/07/17 06:50:41;;;;;;;14.77;2.88;;;34.30;39.50;;;;;;5067297;28;20189;-64
2021/07/17 06:53:07;;;;;;;9.52;2.60;;;34.30;40.10;;;;;;5054618;28;20154;-63
2021/07/17 06:55:34;;;;;;;15.05;3.10;;;34.30;40.40;;;;;;5078407;28;20084;-65
2021/07/17 06:58:00;;;;;;;7.43;2.67;;;34.30;40.20;;;;;;5064881;28;20067;-63
2021/07/17 07:00:27;;;;;;;10.68;3.13;;;34.20;40.70;;;;;;5067224;28;20029;-64
2021/07/17 07:02:53;;;;;;;8.32;2.45;;;34.20;40.70;;;;;;5066337;28;20080;-63
2021/07/17 07:05:20;;;;;;;7.93;2.35;;;34.20;41.10;;;;;;5071344;28;20164;-64
2021/07/17 07:07:46;;;;;;;8.32;2.40;;;34.10;41.60;;;;;;5061079;28;20108;-63
2021/07/17 07:10:13;;;;;;;7.50;2.55;;;34.10;41.60;;;;;;5065665;28;20495;-63
2021/07/17 07:12:40;;;;;;;13.13;3.15;;;34.00;41.80;;;;;;5070697;28;20112;-63
2021/07/17 07:15:10;;;;;;;9.45;2.38;;;34.00;42.10;;;;;;5069358;28;20076;-63
2021/07/17 07:17:38;;;;;;;13.98;2.40;;;33.90;42.20;;;;;;5042221;28;20077;-63
2021/07/17 07:20:09;;;;;;;10.55;1.92;;;33.90;42.40;;;;;;5062649;28;20097;-63
2021/07/17 07:22:38;;;;;;;9.25;2.20;;;33.90;42.70;;;;;;5063505;28;20069;-63
2021/07/17 07:25:06;;;;;;;8.68;2.35;;;33.70;43.40;;;;;;5066470;28;20523;-63
2021/07/17 07:27:33;;;;;;;13.02;2.70;;;33.70;43.60;;;;;;5063911;28;20100;-63
2021/07/17 07:30:00;;;;;;;5.55;2.08;;;33.80;43.90;;;;;;5060169;28;20498;-64
2021/07/17 07:32:27;;;;;;;11.25;2.10;;;33.70;44.30;;;;;;5043976;28;20146;-63
2021/07/17 07:34:54;;;;;;;6.07;2.17;;;33.70;44.70;;;;;;5066171;28;20077;-64
2021/07/17 07:37:20;;;;;;;12.23;2.80;;;33.70;45.20;;;;;;5061798;28;20155;-64
2021/07/17 07:39:47;;;;;;;8.73;2.55;;;33.50;45.90;;;;;;5063983;28;20485;-62
2021/07/17 07:42:13;;;;;;;9.77;2.50;;;33.50;46.10;;;;;;5066098;28;20092;-63
2021/07/17 07:44:40;;;;;;;9.48;2.10;;;33.50;46.40;;;;;;5064004;28;20069;-64
2021/07/17 07:47:06;;;;;;;8.65;2.55;;;33.40;46.90;;;;;;5065476;28;20057;-63
2021/07/17 07:49:33;;;;;;;8.98;2.22;;;34.10;54.70;;;;;;5062772;28;20508;-63
2021/07/17 07:52:00;;;;;;;7.55;2.72;;;33.30;47.50;;;;;;5065458;28;20101;-63
2021/07/17 07:54:26;;;;;;;6.82;2.50;;;33.40;47.70;;;;;;5061326;28;20070;-63
2021/07/17 07:56:53;;;;;;;7.25;2.45;;;33.30;47.90;;;;;;5064068;28;20085;-63
2021/07/17 07:59:19;;;;;;;8.02;3.15;;;33.30;48.60;;;;;;5067330;28;20083;-63
2021/07/17 08:01:46;;;;;;;15.82;4.55;;;33.30;48.90;;;;;;5063641;28;20081;-63
2021/07/17 08:04:12;;;;;;;9.98;3.95;;;33.30;49.00;;;;;;5063723;28;20065;-63
2021/07/17 08:06:39;;;;;;;12.00;3.90;;;33.30;49.40;;;;;;5063219;28;21457;-63
2021/07/17 08:09:05;;;;;;;9.98;2.88;;;33.30;49.90;;;;;;5062085;28;20414;-63
2021/07/17 08:11:32;;;;;;;9.30;3.38;;;33.20;50.10;;;;;;5069013;28;20097;-62
2021/07/17 08:13:58;;;;;;;14.30;2.63;;;33.20;50.30;;;;;;5062927;28;20098;-62
2021/07/17 08:16:24;;;;;;;10.25;2.65;;;33.20;50.60;;;;;;5062127;28;20084;-62
2021/07/17 08:18:51;;;;;;;11.02;2.97;;;33.20;50.90;;;;;;5058793;28;20080;-63
2021/07/17 08:21:17;;;;;;;16.23;2.88;;;33.10;51.20;;;;;;5063798;28;20168;-62
2021/07/17 08:23:45;;;;;;;6.00;2.67;;;33.10;51.60;;;;;;5065634;28;20078;-63
2021/07/17 08:26:12;;;;;;;15.73;3.80;;;33.00;52.20;;;;;;5068165;28;20515;-63
2021/07/17 08:28:39;;;;;;;12.63;3.47;;;33.00;52.50;;;;;;5066645;28;20081;-64
2021/07/17 08:31:06;;;;;;;10.20;3.30;;;32.90;52.80;;;;;;5045889;28;20101;-63
2021/07/17 08:33:32;;;;;;;10.45;3.40;;;32.90;53.40;;;;;;5062619;28;20074;-63
2021/07/17 08:35:59;;;;;;;13.63;3.38;;;32.80;53.90;;;;;;5065686;28;20152;-64
2021/07/17 08:38:25;;;;;;;9.40;2.72;;;32.80;54.40;;;;;;5064436;28;20077;-63
2021/07/17 08:40:54;;;;;;;10.43;3.65;;;32.80;54.80;;;;;;5044873;28;20080;-63
2021/07/17 08:43:22;;;;;;;11.38;3.00;;;32.80;55.10;;;;;;5052320;28;20073;-64
2021/07/17 08:45:49;;;;;;;8.90;2.58;;;32.80;55.40;;;;;;5065999;28;20132;-64
2021/07/17 08:48:18;;;;;;;9.75;2.58;;;32.80;55.90;;;;;;5067457;28;20080;-64
2021/07/17 08:50:45;;;;;;;8.35;2.60;;;32.80;56.20;;;;;;5064423;28;20450;-64
2021/07/17 08:53:15;;;;;;;8.00;2.65;;;32.80;56.40;;;;;;5064151;28;20073;-63
2021/07/17 08:55:41;;;;;;;11.20;2.40;;;32.80;56.60;;;;;;5062343;28;20580;-63
2021/07/17 08:58:08;;;;;;;7.65;2.35;;;32.70;57.30;;;;;;5064821;28;20081;-64
2021/07/17 09:00:37;;;;;;;10.57;2.78;;;32.60;57.80;;;;;;5064643;28;20132;-63
2021/07/17 09:03:10;;;;;;;8.85;2.60;;;32.60;58.30;;;;;;5062948;28;20076;-64
2021/07/17 09:05:48;;;;;;;10.77;2.90;;;32.50;77.20;;;;;;5063228;28;20531;-64
2021/07/17 09:08:17;;;;;;;10.77;2.70;;;32.30;62.90;;;;;;5058197;28;20046;-64
2021/07/17 09:10:45;;;;;;;8.75;2.85;;;32.40;60.60;;;;;;5059170;28;20574;-64
2021/07/17 09:13:32;;;;;;;9.10;2.83;;;32.30;61.80;;;;;;5064045;28;20069;-64
2021/07/17 09:16:01;;;;;;;8.43;2.75;;;32.30;62.30;;;;;;5063379;28;20534;-63
2021/07/17 09:18:32;;;;;;;10.73;3.03;;;32.20;63.30;;;;;;5062359;28;20618;-64
2021/07/17 09:21:01;;;;;;;12.98;2.83;;;32.20;64.50;;;;;;5061023;28;20442;-64
2021/07/17 09:23:29;;;;;;;11.23;3.20;;;32.20;64.40;;;;;;5064786;28;20073;-64
2021/07/17 09:25:56;;;;;;;10.48;3.17;;;32.00;65.20;;;;;;5062836;28;20078;-64
2021/07/17 09:28:28;;;;;;;13.07;3.25;;;32.10;66.00;;;;;;5062925;28;20431;-63
2021/07/17 09:30:57;;;;;;;11.45;2.92;;;32.00;66.80;;;;;;5062391;28;20619;-63
2021/07/17 09:33:25;;;;;;;9.05;2.90;;;31.90;67.40;;;;;;5068301;28;20077;-64
2021/07/17 09:35:53;;;;;;;12.20;3.00;;;31.90;68.00;;;;;;5066046;28;20109;-63
2021/07/17 09:38:21;;;;;;;12.82;3.05;;;31.90;69.00;;;;;;5067145;28;20080;-64
2021/07/17 09:40:58;;;;;;;10.60;2.65;;;31.80;69.80;;;;;;5065512;28;20559;-64
2021/07/17 09:43:30;;;;;;;11.07;2.90;;;31.80;70.10;;;;;;5072176;28;20073;-63
2021/07/17 09:45:58;;;;;;;12.63;2.92;;;31.80;70.80;;;;;;5064282;28;20081;-64
2021/07/17 09:48:31;;;;;;;13.50;3.08;;;31.70;71.10;;;;;;5063603;28;20089;-63
2021/07/17 09:51:00;;;;;;;13.38;3.03;;;31.70;71.30;;;;;;5062739;28;20457;-63
2021/07/17 09:53:46;;;;;;;12.15;2.92;;;31.70;71.80;;;;;;5067037;28;20144;-63
2021/07/17 09:56:24;;;;;;;7.57;2.45;;;31.60;72.80;;;;;;5066300;28;20081;-63
2021/07/17 09:58:52;;;;;;;8.82;2.85;;;31.50;73.60;;;;;;5066741;28;20089;-64
2021/07/17 10:01:26;;;;;;;10.45;2.40;;;31.50;73.70;;;;;;5065872;28;20589;-63
2021/07/17 10:04:02;;;;;;;10.35;2.58;;;31.50;74.20;;;;;;5064367;28;20089;-63
2021/07/17 10:06:31;;;;;;;8.70;2.58;;;31.60;74.40;;;;;;5065748;28;20147;-63
2021/07/17 10:09:00;;;;;;;7.20;2.58;;;31.50;74.80;;;;;;5064606;28;20557;-63
2021/07/17 10:11:28;;;;;;;10.80;2.83;;;31.50;75.70;;;;;;5067461;28;20191;-63
2021/07/17 10:13:55;;;;;;;11.43;2.67;;;31.50;76.20;;;;;;5067762;28;20081;-63
2021/07/17 10:16:24;;;;;;;11.25;3.00;;;31.50;76.60;;;;;;5067747;28;20196;-63
2021/07/17 10:18:53;;;;;;;10.57;2.78;;;31.40;77.20;;;;;;5066200;28;20073;-63
2021/07/17 10:21:21;;;;;;;12.48;2.60;;;31.30;77.80;;;;;;5063490;28;20070;-63
2021/07/17 10:23:48;;;;;;;8.00;2.67;;;31.30;78.10;;;;;;5064112;28;20073;-63
2021/07/17 10:26:15;;;;;;;10.98;2.70;;;31.30;78.20;;;;;;5065843;28;20462;-63
2021/07/17 10:28:41;;;;;;;8.30;2.30;;;31.30;78.40;;;;;;5066143;28;20070;-63
2021/07/17 10:31:08;;;;;;;9.07;2.45;;;31.40;78.70;;;;;;5068207;28;20443;-63
2021/07/17 10:33:36;;;;;;;8.63;2.72;;;31.30;78.90;;;;;;5063616;28;20073;-63
2021/07/17 10:36:14;;;;;;;11.02;2.45;;;31.20;79.30;;;;;;5070300;28;20512;-63
2021/07/17 10:38:44;;;;;;;10.25;2.63;;;31.30;79.80;;;;;;5067630;28;20106;-63
2021/07/17 10:41:17;;;;;;;10.82;2.92;;;31.20;79.40;;;;;;5070477;28;20085;-63
2021/07/17 10:43:51;;;;;;;8.63;2.78;;;31.20;80.30;;;;;;5064527;28;20066;-63
2021/07/17 10:46:42;;;;;;;10.60;2.70;;;31.20;80.20;;;;;;5066829;28;20077;-63
2021/07/17 10:49:12;;;;;;;9.32;2.50;;;31.20;80.40;;;;;;5063819;28;20128;-63
2021/07/17 10:51:50;;;;;;;10.27;2.70;;;31.10;81.10;;;;;;5066844;28;20439;-63
2021/07/17 10:54:30;;;;;;;9.93;2.65;;;31.00;81.80;;;;;;5065930;28;20788;-63
2021/07/17 10:56:58;;;;;;;5.95;2.28;;;31.00;82.30;;;;;;5063943;28;20101;-63
2021/07/17 10:59:24;;;;;;;9.23;2.50;;;31.00;82.50;;;;;;5058181;28;20080;-63
2021/07/17 11:02:02;;;;;;;9.00;2.60;;;30.90;82.50;;;;;;5066566;28;20168;-63
2021/07/17 11:04:35;;;;;;;14.65;2.85;;;30.90;83.70;;;;;;5049813;28;20151;-63
2021/07/17 11:07:21;;;;;;;10.27;2.78;;;30.80;83.10;;;;;;5063401;28;20068;-63
2021/07/17 11:09:57;;;;;;;13.07;2.60;;;30.80;99.90;;;;;;5054194;28;20088;-63
2021/07/17 11:12:50;;;;;;;10.02;2.58;;;30.80;82.80;;;;;;5064553;28;20651;-63
2021/07/17 11:15:20;;;;;;;12.38;2.95;;;30.80;82.50;;;;;;5070324;28;20076;-63
2021/07/17 11:17:53;;;;;;;10.07;2.75;;;30.70;83.10;;;;;;5063031;28;20135;-63
2021/07/17 11:20:33;;;;;;;11.57;2.85;;;30.90;83.30;;;;;;5064822;28;20077;-63
2021/07/17 11:23:17;;;;;;;12.48;2.63;;;31.00;82.50;;;;;;5065106;28;20085;-63
2021/07/17 11:26:12;;;;;;;11.23;3.25;;;30.60;95.40;;;;;;5065308;28;20519;-63
2021/07/17 11:28:48;;;;;;;15.60;3.70;;;30.90;81.70;;;;;;5059474;28;20161;-63
2021/07/17 11:31:34;;;;;;;12.73;3.47;;;30.90;81.40;;;;;;5059668;28;20143;-63
2021/07/17 11:34:20;;;;;;;6.18;2.83;;;30.80;80.50;;;;;;5062398;28;20053;-63
2021/07/17 11:36:53;;;;;;;10.80;3.67;;;30.80;95.10;;;;;;5064427;28;20101;-63
2021/07/17 11:39:26;;;;;;;10.90;3.15;;;31.20;95.00;;;;;;5066808;28;20081;-63
2021/07/17 11:41:53;;;;;;;12.95;4.05;;;30.80;79.00;;;;;;5065606;28;20081;-63
2021/07/17 11:44:20;;;;;;;12.25;4.30;;;30.90;78.80;;;;;;5064105;28;20104;-63
2021/07/17 11:46:58;;;;;;;17.17;3.67;;;30.80;94.40;;;;;;5066464;28;20608;-63
2021/07/17 11:49:43;;;;;;;9.07;2.50;;;31.10;92.80;;;;;;5063155;28;20144;-63
2021/07/17 11:52:20;;;;;;;6.25;2.17;;;30.60;93.30;;;;;;5061994;28;20100;-64
2021/07/17 11:54:54;;;;;;;11.35;2.53;;;31.00;95.90;;;;;;5065314;28;20091;-63
2021/07/17 11:57:22;;;;;;;7.93;2.30;;;30.70;94.00;;;;;;5046383;28;20159;-63
2021/07/17 12:00:05;;;;;;;6.22;2.05;;;30.60;72.70;;;;;;5061129;28;20081;-63
2021/07/17 12:02:33;;;;;;;12.27;2.30;;;30.30;92.10;;;;;;5066403;28;20150;-63
2021/07/17 12:05:13;;;;;;;17.00;3.45;;;30.60;71.40;;;;;;5066400;28;20119;-63
2021/07/17 12:07:41;;;;;;;38.28;2.70;;;30.50;91.60;;;;;;5061234;28;20152;-63
2021/07/17 12:10:20;;;;;;;7.45;2.45;;;30.50;92.50;;;;;;5062288;28;20077;-63
2021/07/17 12:12:51;;;;;;;6.50;2.20;;;30.50;70.20;;;;;;5066749;28;20552;-63
2021/07/17 12:15:28;;;;;;;8.40;2.30;;;30.50;69.80;;;;;;5069540;28;21565;-64
2021/07/17 12:17:54;;;;;;;;;;;30.50;70.20;;;;;;5066437;28;20091;-63
2021/07/17 12:20:35;;;;;;;13.38;2.25;;;30.40;69.00;;;;;;5062796;28;20340;-63
2021/07/17 12:23:24;;;;;;;9.52;2.30;;;30.40;68.50;;;;;;5056583;28;20113;-63
2021/07/17 12:25:52;;;;;;;9.90;2.40;;;30.40;68.00;;;;;;5065235;28;20084;-63
2021/07/17 12:28:20;;;;;;;11.00;2.50;;;30.50;90.20;;;;;;5064338;28;20083;-63
2021/07/17 12:30:51;;;;;;;10.27;2.30;;;30.50;68.30;;;;;;5059993;28;20091;-63
2021/07/17 12:33:23;;;;;;;9.30;2.58;;;30.50;67.90;;;;;;5060347;28;20530;-64
2021/07/17 12:36:11;;;;;;;8.98;2.53;;;30.50;67.50;;;;;;5063876;28;20083;-63
2021/07/17 12:38:49;;;;;;;6.93;2.30;;;31.20;87.70;;;;;;5060933;28;20445;-63
2021/07/17 12:41:26;;;;;;;9.55;2.35;;;30.30;79.40;;;;;;5058854;28;20077;-63
2021/07/17 12:44:01;;;;;;;8.57;2.58;;;30.40;91.70;;;;;;5063097;28;20097;-63
2021/07/17 12:46:30;;;;;;;10.48;2.38;;;30.40;66.20;;;;;;5064493;28;20072;-63
2021/07/17 12:49:09;;;;;;;10.95;3.20;;;30.40;66.00;;;;;;5062867;28;20099;-63
2021/07/17 12:51:37;;;;;;;9.25;3.13;;;30.40;64.60;;;;;;5063029;28;20174;-63